sensor_id;sensor_type;location;lat;lon;timestamp;P1;durP1;ratioP1;P2;durP2;ratioP2
5475;SDS011;2760;50.000;9.194;2022-10-22T00:02:17;9.60;;;5.30;;
5475;SDS011;2760;50.000;9.194;2022-10-22T00:04:44;11.53;;;5.40;;
5475;SDS011;2760;50.000;9.194;2022-10-22T00:07:12;9.63;;;5.00;;
5475;SDS011;2760;50.000;9.194;2022-10-22T00:09:39;9.90;;;4.60;;
5475;SDS011;2760;50.000;9.194;2022-10-22T00:12:07;7.73;;;5.60;;
5475;SDS011;2760;50.000;9.194;2022-10-22T00:14:35;9.13;;;5.17;;
5475;SDS011;2760;50.000;9.194;2022-10-22T00:17:02;16.80;;;5.93;;
5475;SDS011;2760;50.000;9.194;2022-10-22T00:19:30;16.73;;;5.30;;
5475;SDS011;2760;50.000;9.194;2022-10-22T00:21:57;9.00;;;6.07;;
5475;SDS011;2760;50.000;9.194;2022-10-22T00:24:24;8.17;;;5.50;;
5475;SDS011;2760;50.000;9.194;2022-10-22T00:26:51;14.90;;;6.03;;
5475;SDS011;2760;50.000;9.194;2022-10-22T00:29:19;19.50;;;7.10;;
5475;SDS011;2760;50.000;9.194;2022-10-22T00:31:46;11.00;;;6.40;;
5475;SDS011;2760;50.000;9.194;2022-10-22T00:34:15;17.37;;;6.27;;
5475;SDS011;2760;50.000;9.194;2022-10-22T00:36:42;14.73;;;6.40;;
5475;SDS011;2760;50.000;9.194;2022-10-22T00:39:10;9.83;;;6.63;;
5475;SDS011;2760;50.000;9.194;2022-10-22T00:41:40;11.53;;;6.30;;
5475;SDS011;2760;50.000;9.194;2022-10-22T00:44:57;19.47;;;7.00;;
5475;SDS011;2760;50.000;9.194;2022-10-22T00:47:14;13.90;;;6.30;;
5475;SDS011;2760;50.000;9.194;2022-10-22T00:49:42;14.60;;;5.07;;
5475;SDS011;2760;50.000;9.194;2022-10-22T00:52:11;12.53;;;5.60;;
5475;SDS011;2760;50.000;9.194;2022-10-22T00:54:39;10.00;;;4.60;;
5475;SDS011;2760;50.000;9.194;2022-10-22T00:57:07;10.87;;;5.37;;
5475;SDS011;2760;50.000;9.194;2022-10-22T00:59:35;11.87;;;5.23;;
5475;SDS011;2760;50.000;9.194;2022-10-22T01:02:02;7.37;;;4.57;;
5475;SDS011;2760;50.000;9.194;2022-10-22T01:04:31;10.73;;;5.17;;
5475;SDS011;2760;50.000;9.194;2022-10-22T01:06:58;11.33;;;4.93;;
5475;SDS011;2760;50.000;9.194;2022-10-22T01:09:27;10.47;;;5.10;;
5475;SDS011;2760;50.000;9.194;2022-10-22T01:12:00;11.80;;;4.80;;
5475;SDS011;2760;50.000;9.194;2022-10-22T01:14:34;4.50;;;3.77;;
5475;SDS011;2760;50.000;9.194;2022-10-22T01:17:09;3.53;;;2.40;;
5475;SDS011;2760;50.000;9.194;2022-10-22T01:19:47;5.33;;;2.53;;
5475;SDS011;2760;50.000;9.194;2022-10-22T01:22:25;3.70;;;2.53;;
5475;SDS011;2760;50.000;9.194;2022-10-22T01:24:57;7.27;;;2.63;;
5475;SDS011;2760;50.000;9.194;2022-10-22T01:27:33;3.93;;;2.60;;
5475;SDS011;2760;50.000;9.194;2022-10-22T01:30:09;7.30;;;2.80;;
5475;SDS011;2760;50.000;9.194;2022-10-22T01:32:39;4.97;;;2.80;;
5475;SDS011;2760;50.000;9.194;2022-10-22T01:35:10;6.70;;;2.30;;
5475;SDS011;2760;50.000;9.194;2022-10-22T01:37:42;6.73;;;2.93;;
5475;SDS011;2760;50.000;9.194;2022-10-22T01:40:17;5.03;;;2.23;;
5475;SDS011;2760;50.000;9.194;2022-10-22T01:42:56;4.40;;;2.90;;
5475;SDS011;2760;50.000;9.194;2022-10-22T01:45:26;8.60;;;2.87;;
5475;SDS011;2760;50.000;9.194;2022-10-22T01:47:56;8.27;;;3.20;;
5475;SDS011;2760;50.000;9.194;2022-10-22T01:50:40;6.00;;;3.30;;
5475;SDS011;2760;50.000;9.194;2022-10-22T01:53:20;12.80;;;3.87;;
5475;SDS011;2760;50.000;9.194;2022-10-22T01:56:02;8.93;;;3.50;;
5475;SDS011;2760;50.000;9.194;2022-10-22T01:58:44;10.47;;;3.33;;
5475;SDS011;2760;50.000;9.194;2022-10-22T02:01:24;7.67;;;3.17;;
5475;SDS011;2760;50.000;9.194;2022-10-22T02:03:59;5.27;;;3.50;;
5475;SDS011;2760;50.000;9.194;2022-10-22T02:06:31;8.03;;;3.50;;
5475;SDS011;2760;50.000;9.194;2022-10-22T02:08:59;7.83;;;3.30;;
5475;SDS011;2760;50.000;9.194;2022-10-22T02:11:27;14.37;;;3.20;;
5475;SDS011;2760;50.000;9.194;2022-10-22T02:13:55;5.73;;;3.20;;
5475;SDS011;2760;50.000;9.194;2022-10-22T02:16:28;5.00;;;3.27;;
5475;SDS011;2760;50.000;9.194;2022-10-22T02:18:57;7.00;;;3.10;;
5475;SDS011;2760;50.000;9.194;2022-10-22T02:21:29;5.30;;;3.47;;
5475;SDS011;2760;50.000;9.194;2022-10-22T02:23:56;8.33;;;3.57;;
5475;SDS011;2760;50.000;9.194;2022-10-22T02:26:27;10.20;;;3.33;;
5475;SDS011;2760;50.000;9.194;2022-10-22T02:28:58;6.17;;;3.63;;
5475;SDS011;2760;50.000;9.194;2022-10-22T02:31:32;4.43;;;3.83;;
5475;SDS011;2760;50.000;9.194;2022-10-22T02:34:04;9.03;;;3.50;;
5475;SDS011;2760;50.000;9.194;2022-10-22T02:36:35;4.50;;;3.30;;
5475;SDS011;2760;50.000;9.194;2022-10-22T02:39:03;4.77;;;3.50;;
5475;SDS011;2760;50.000;9.194;2022-10-22T02:41:31;7.80;;;3.20;;
5475;SDS011;2760;50.000;9.194;2022-10-22T02:43:58;7.30;;;3.20;;
5475;SDS011;2760;50.000;9.194;2022-10-22T02:46:26;13.93;;;2.70;;
5475;SDS011;2760;50.000;9.194;2022-10-22T02:48:55;9.47;;;2.70;;
5475;SDS011;2760;50.000;9.194;2022-10-22T02:51:22;7.10;;;2.90;;
5475;SDS011;2760;50.000;9.194;2022-10-22T02:53:49;3.90;;;2.73;;
5475;SDS011;2760;50.000;9.194;2022-10-22T02:56:16;8.00;;;3.40;;
5475;SDS011;2760;50.000;9.194;2022-10-22T02:58:43;5.33;;;3.70;;
5475;SDS011;2760;50.000;9.194;2022-10-22T03:01:10;11.83;;;4.47;;
5475;SDS011;2760;50.000;9.194;2022-10-22T03:03:37;7.53;;;3.60;;
5475;SDS011;2760;50.000;9.194;2022-10-22T03:06:06;4.70;;;3.40;;
5475;SDS011;2760;50.000;9.194;2022-10-22T03:08:33;13.20;;;3.27;;
5475;SDS011;2760;50.000;9.194;2022-10-22T03:11:00;5.80;;;3.40;;
5475;SDS011;2760;50.000;9.194;2022-10-22T03:13:27;4.50;;;3.60;;
5475;SDS011;2760;50.000;9.194;2022-10-22T03:15:54;6.53;;;2.97;;
5475;SDS011;2760;50.000;9.194;2022-10-22T03:18:21;5.40;;;3.80;;
5475;SDS011;2760;50.000;9.194;2022-10-22T03:20:48;9.47;;;3.83;;
5475;SDS011;2760;50.000;9.194;2022-10-22T03:23:17;6.53;;;3.37;;
5475;SDS011;2760;50.000;9.194;2022-10-22T03:25:45;9.00;;;3.83;;
5475;SDS011;2760;50.000;9.194;2022-10-22T03:28:14;7.07;;;3.80;;
5475;SDS011;2760;50.000;9.194;2022-10-22T03:30:43;7.77;;;4.10;;
5475;SDS011;2760;50.000;9.194;2022-10-22T03:33:10;8.03;;;3.27;;
5475;SDS011;2760;50.000;9.194;2022-10-22T03:35:39;5.80;;;2.70;;
5475;SDS011;2760;50.000;9.194;2022-10-22T03:38:11;3.37;;;2.50;;
5475;SDS011;2760;50.000;9.194;2022-10-22T03:40:40;5.13;;;2.93;;
5475;SDS011;2760;50.000;9.194;2022-10-22T03:43:09;7.20;;;3.20;;
5475;SDS011;2760;50.000;9.194;2022-10-22T03:45:36;5.83;;;3.13;;
5475;SDS011;2760;50.000;9.194;2022-10-22T03:48:03;3.63;;;3.17;;
5475;SDS011;2760;50.000;9.194;2022-10-22T03:50:32;6.27;;;2.67;;
5475;SDS011;2760;50.000;9.194;2022-10-22T03:52:58;5.00;;;3.50;;
5475;SDS011;2760;50.000;9.194;2022-10-22T03:55:25;16.00;;;6.07;;
5475;SDS011;2760;50.000;9.194;2022-10-22T03:57:54;12.07;;;7.30;;
5475;SDS011;2760;50.000;9.194;2022-10-22T04:00:21;10.63;;;6.73;;
5475;SDS011;2760;50.000;9.194;2022-10-22T04:02:48;7.63;;;4.73;;
5475;SDS011;2760;50.000;9.194;2022-10-22T04:05:15;4.93;;;3.77;;
5475;SDS011;2760;50.000;9.194;2022-10-22T04:07:42;20.13;;;3.27;;
5475;SDS011;2760;50.000;9.194;2022-10-22T04:10:08;3.97;;;3.00;;
5475;SDS011;2760;50.000;9.194;2022-10-22T04:12:35;4.27;;;3.37;;
5475;SDS011;2760;50.000;9.194;2022-10-22T04:15:04;5.60;;;3.70;;
5475;SDS011;2760;50.000;9.194;2022-10-22T04:17:32;5.93;;;3.50;;
5475;SDS011;2760;50.000;9.194;2022-10-22T04:19:59;9.07;;;3.27;;
5475;SDS011;2760;50.000;9.194;2022-10-22T04:22:27;5.33;;;3.07;;
5475;SDS011;2760;50.000;9.194;2022-10-22T04:24:54;14.37;;;9.23;;
5475;SDS011;2760;50.000;9.194;2022-10-22T04:27:21;12.63;;;3.60;;
5475;SDS011;2760;50.000;9.194;2022-10-22T04:29:48;6.57;;;3.40;;
5475;SDS011;2760;50.000;9.194;2022-10-22T04:32:16;3.60;;;3.20;;
5475;SDS011;2760;50.000;9.194;2022-10-22T04:34:43;14.53;;;3.13;;
5475;SDS011;2760;50.000;9.194;2022-10-22T04:37:10;3.83;;;2.33;;
5475;SDS011;2760;50.000;9.194;2022-10-22T04:39:37;3.03;;;2.47;;
5475;SDS011;2760;50.000;9.194;2022-10-22T04:42:04;3.83;;;2.40;;
5475;SDS011;2760;50.000;9.194;2022-10-22T04:44:31;2.37;;;2.17;;
5475;SDS011;2760;50.000;9.194;2022-10-22T04:46:58;5.23;;;2.27;;
5475;SDS011;2760;50.000;9.194;2022-10-22T04:49:27;2.80;;;2.50;;
5475;SDS011;2760;50.000;9.194;2022-10-22T04:51:54;6.00;;;2.70;;
5475;SDS011;2760;50.000;9.194;2022-10-22T04:54:21;5.47;;;2.30;;
5475;SDS011;2760;50.000;9.194;2022-10-22T04:56:48;16.40;;;2.33;;
5475;SDS011;2760;50.000;9.194;2022-10-22T04:59:15;8.43;;;2.63;;
5475;SDS011;2760;50.000;9.194;2022-10-22T05:01:42;17.43;;;2.93;;
5475;SDS011;2760;50.000;9.194;2022-10-22T05:04:10;9.83;;;2.03;;
5475;SDS011;2760;50.000;9.194;2022-10-22T05:06:40;7.47;;;2.90;;
5475;SDS011;2760;50.000;9.194;2022-10-22T05:09:11;4.57;;;2.60;;
5475;SDS011;2760;50.000;9.194;2022-10-22T05:11:39;7.67;;;2.80;;
5475;SDS011;2760;50.000;9.194;2022-10-22T05:14:10;6.93;;;2.77;;
5475;SDS011;2760;50.000;9.194;2022-10-22T05:16:38;2.67;;;2.47;;
5475;SDS011;2760;50.000;9.194;2022-10-22T05:19:06;9.50;;;2.77;;
5475;SDS011;2760;50.000;9.194;2022-10-22T05:21:34;8.27;;;4.30;;
5475;SDS011;2760;50.000;9.194;2022-10-22T05:24:04;16.00;;;3.30;;
5475;SDS011;2760;50.000;9.194;2022-10-22T05:26:31;6.83;;;2.70;;
5475;SDS011;2760;50.000;9.194;2022-10-22T05:28:59;4.70;;;2.70;;
5475;SDS011;2760;50.000;9.194;2022-10-22T05:31:26;5.90;;;2.70;;
5475;SDS011;2760;50.000;9.194;2022-10-22T05:33:53;2.80;;;2.50;;
5475;SDS011;2760;50.000;9.194;2022-10-22T05:36:21;8.90;;;2.63;;
5475;SDS011;2760;50.000;9.194;2022-10-22T05:38:48;3.20;;;2.80;;
5475;SDS011;2760;50.000;9.194;2022-10-22T05:41:18;4.43;;;2.37;;
5475;SDS011;2760;50.000;9.194;2022-10-22T05:43:47;6.70;;;2.73;;
5475;SDS011;2760;50.000;9.194;2022-10-22T05:46:15;6.90;;;2.93;;
5475;SDS011;2760;50.000;9.194;2022-10-22T05:48:43;5.90;;;2.97;;
5475;SDS011;2760;50.000;9.194;2022-10-22T05:51:13;11.83;;;8.00;;
5475;SDS011;2760;50.000;9.194;2022-10-22T05:53:41;8.70;;;3.47;;
5475;SDS011;2760;50.000;9.194;2022-10-22T05:56:10;7.23;;;2.90;;
5475;SDS011;2760;50.000;9.194;2022-10-22T05:58:40;6.03;;;2.87;;
5475;SDS011;2760;50.000;9.194;2022-10-22T06:01:10;5.20;;;3.00;;
5475;SDS011;2760;50.000;9.194;2022-10-22T06:03:39;5.90;;;2.60;;
5475;SDS011;2760;50.000;9.194;2022-10-22T06:06:09;4.90;;;4.40;;
5475;SDS011;2760;50.000;9.194;2022-10-22T06:08:43;3.90;;;2.53;;
5475;SDS011;2760;50.000;9.194;2022-10-22T06:11:10;5.67;;;2.47;;
5475;SDS011;2760;50.000;9.194;2022-10-22T06:13:40;6.20;;;2.47;;
5475;SDS011;2760;50.000;9.194;2022-10-22T06:16:07;4.67;;;2.60;;
5475;SDS011;2760;50.000;9.194;2022-10-22T06:18:34;2.73;;;2.53;;
5475;SDS011;2760;50.000;9.194;2022-10-22T06:21:04;2.53;;;2.33;;
5475;SDS011;2760;50.000;9.194;2022-10-22T06:23:32;8.87;;;2.97;;
5475;SDS011;2760;50.000;9.194;2022-10-22T06:25:59;5.10;;;2.97;;
5475;SDS011;2760;50.000;9.194;2022-10-22T06:28:27;5.20;;;3.03;;
5475;SDS011;2760;50.000;9.194;2022-10-22T06:30:57;8.93;;;3.43;;
5475;SDS011;2760;50.000;9.194;2022-10-22T06:33:24;6.00;;;3.03;;
5475;SDS011;2760;50.000;9.194;2022-10-22T06:35:51;3.77;;;2.20;;
5475;SDS011;2760;50.000;9.194;2022-10-22T06:38:19;2.23;;;2.13;;
5475;SDS011;2760;50.000;9.194;2022-10-22T06:40:46;8.03;;;4.00;;
5475;SDS011;2760;50.000;9.194;2022-10-22T06:43:13;4.47;;;3.33;;
5475;SDS011;2760;50.000;9.194;2022-10-22T06:45:40;3.10;;;2.57;;
5475;SDS011;2760;50.000;9.194;2022-10-22T06:48:08;5.10;;;2.60;;
5475;SDS011;2760;50.000;9.194;2022-10-22T06:50:35;3.63;;;2.67;;
5475;SDS011;2760;50.000;9.194;2022-10-22T06:53:02;2.97;;;2.40;;
5475;SDS011;2760;50.000;9.194;2022-10-22T06:55:29;3.93;;;2.97;;
5475;SDS011;2760;50.000;9.194;2022-10-22T06:57:57;6.23;;;2.37;;
5475;SDS011;2760;50.000;9.194;2022-10-22T07:00:24;7.70;;;1.83;;
5475;SDS011;2760;50.000;9.194;2022-10-22T07:02:51;2.43;;;1.70;;
5475;SDS011;2760;50.000;9.194;2022-10-22T07:05:21;2.53;;;1.63;;
5475;SDS011;2760;50.000;9.194;2022-10-22T07:07:48;3.63;;;1.70;;
5475;SDS011;2760;50.000;9.194;2022-10-22T07:10:15;3.07;;;1.70;;
5475;SDS011;2760;50.000;9.194;2022-10-22T07:12:42;3.27;;;1.87;;
5475;SDS011;2760;50.000;9.194;2022-10-22T07:15:10;2.80;;;2.10;;
5475;SDS011;2760;50.000;9.194;2022-10-22T07:17:37;3.43;;;1.60;;
5475;SDS011;2760;50.000;9.194;2022-10-22T07:20:05;7.83;;;1.97;;
5475;SDS011;2760;50.000;9.194;2022-10-22T07:22:34;4.23;;;1.87;;
5475;SDS011;2760;50.000;9.194;2022-10-22T07:25:01;1.90;;;1.63;;
5475;SDS011;2760;50.000;9.194;2022-10-22T07:27:30;3.30;;;1.37;;
5475;SDS011;2760;50.000;9.194;2022-10-22T07:29:57;1.70;;;1.60;;
5475;SDS011;2760;50.000;9.194;2022-10-22T07:32:25;2.10;;;1.43;;
5475;SDS011;2760;50.000;9.194;2022-10-22T07:34:52;7.03;;;1.50;;
5475;SDS011;2760;50.000;9.194;2022-10-22T07:37:19;5.27;;;1.60;;
5475;SDS011;2760;50.000;9.194;2022-10-22T07:39:48;1.40;;;1.30;;
5475;SDS011;2760;50.000;9.194;2022-10-22T07:42:15;3.10;;;2.20;;
5475;SDS011;2760;50.000;9.194;2022-10-22T07:44:42;1.87;;;1.77;;
5475;SDS011;2760;50.000;9.194;2022-10-22T07:47:09;3.53;;;2.20;;
5475;SDS011;2760;50.000;9.194;2022-10-22T07:49:36;6.00;;;1.90;;
5475;SDS011;2760;50.000;9.194;2022-10-22T07:52:05;2.97;;;2.07;;
5475;SDS011;2760;50.000;9.194;2022-10-22T07:54:32;3.93;;;2.00;;
5475;SDS011;2760;50.000;9.194;2022-10-22T07:57:02;8.23;;;1.43;;
5475;SDS011;2760;50.000;9.194;2022-10-22T07:59:29;3.17;;;1.63;;
5475;SDS011;2760;50.000;9.194;2022-10-22T08:01:57;1.60;;;1.40;;
5475;SDS011;2760;50.000;9.194;2022-10-22T08:04:24;2.20;;;1.53;;
5475;SDS011;2760;50.000;9.194;2022-10-22T08:06:51;1.30;;;1.07;;
5475;SDS011;2760;50.000;9.194;2022-10-22T08:09:18;1.30;;;1.17;;
5475;SDS011;2760;50.000;9.194;2022-10-22T08:11:45;2.47;;;1.40;;
5475;SDS011;2760;50.000;9.194;2022-10-22T08:14:14;1.40;;;1.30;;
5475;SDS011;2760;50.000;9.194;2022-10-22T08:16:41;3.47;;;1.53;;
5475;SDS011;2760;50.000;9.194;2022-10-22T08:19:08;2.50;;;1.70;;
5475;SDS011;2760;50.000;9.194;2022-10-22T08:21:35;2.10;;;1.80;;
5475;SDS011;2760;50.000;9.194;2022-10-22T08:24:02;3.27;;;1.80;;
5475;SDS011;2760;50.000;9.194;2022-10-22T08:26:29;1.43;;;1.30;;
5475;SDS011;2760;50.000;9.194;2022-10-22T08:28:57;2.57;;;1.60;;
5475;SDS011;2760;50.000;9.194;2022-10-22T08:31:25;5.47;;;1.30;;
5475;SDS011;2760;50.000;9.194;2022-10-22T08:33:52;2.23;;;1.70;;
5475;SDS011;2760;50.000;9.194;2022-10-22T08:36:20;7.33;;;1.50;;
5475;SDS011;2760;50.000;9.194;2022-10-22T08:38:47;3.40;;;1.57;;
5475;SDS011;2760;50.000;9.194;2022-10-22T08:41:15;1.50;;;1.40;;
5475;SDS011;2760;50.000;9.194;2022-10-22T08:43:49;4.67;;;2.00;;
5475;SDS011;2760;50.000;9.194;2022-10-22T08:46:50;3.63;;;1.10;;
5475;SDS011;2760;50.000;9.194;2022-10-22T08:49:39;3.90;;;1.23;;
5475;SDS011;2760;50.000;9.194;2022-10-22T08:52:09;5.33;;;1.30;;
5475;SDS011;2760;50.000;9.194;2022-10-22T08:54:41;2.50;;;1.37;;
5475;SDS011;2760;50.000;9.194;2022-10-22T08:57:18;1.70;;;1.27;;
5475;SDS011;2760;50.000;9.194;2022-10-22T09:00:10;2.13;;;1.20;;
5475;SDS011;2760;50.000;9.194;2022-10-22T09:02:46;4.17;;;1.07;;
5475;SDS011;2760;50.000;9.194;2022-10-22T09:05:30;1.30;;;1.20;;
5475;SDS011;2760;50.000;9.194;2022-10-22T09:08:06;1.57;;;0.93;;
5475;SDS011;2760;50.000;9.194;2022-10-22T09:10:39;1.97;;;0.90;;
5475;SDS011;2760;50.000;9.194;2022-10-22T09:13:12;1.73;;;0.80;;
5475;SDS011;2760;50.000;9.194;2022-10-22T09:15:43;9.50;;;1.90;;
5475;SDS011;2760;50.000;9.194;2022-10-22T09:18:17;2.60;;;1.00;;
5475;SDS011;2760;50.000;9.194;2022-10-22T09:20:57;1.47;;;0.97;;
5475;SDS011;2760;50.000;9.194;2022-10-22T09:23:32;2.60;;;1.27;;
5475;SDS011;2760;50.000;9.194;2022-10-22T09:26:07;1.07;;;0.87;;
5475;SDS011;2760;50.000;9.194;2022-10-22T09:28:40;3.23;;;0.80;;
5475;SDS011;2760;50.000;9.194;2022-10-22T09:31:11;2.53;;;1.23;;
5475;SDS011;2760;50.000;9.194;2022-10-22T09:33:42;3.03;;;1.20;;
5475;SDS011;2760;50.000;9.194;2022-10-22T09:36:14;2.17;;;1.10;;
5475;SDS011;2760;50.000;9.194;2022-10-22T09:38:44;1.00;;;0.90;;
5475;SDS011;2760;50.000;9.194;2022-10-22T09:41:13;2.90;;;1.33;;
5475;SDS011;2760;50.000;9.194;2022-10-22T09:43:40;2.70;;;0.90;;
5475;SDS011;2760;50.000;9.194;2022-10-22T09:46:13;1.70;;;1.00;;
5475;SDS011;2760;50.000;9.194;2022-10-22T09:48:46;1.27;;;1.17;;
5475;SDS011;2760;50.000;9.194;2022-10-22T09:51:17;1.73;;;0.83;;
5475;SDS011;2760;50.000;9.194;2022-10-22T09:53:46;9.43;;;1.53;;
5475;SDS011;2760;50.000;9.194;2022-10-22T09:56:24;1.50;;;0.80;;
5475;SDS011;2760;50.000;9.194;2022-10-22T09:58:53;15.10;;;1.20;;
5475;SDS011;2760;50.000;9.194;2022-10-22T10:01:23;1.47;;;0.80;;
5475;SDS011;2760;50.000;9.194;2022-10-22T10:03:53;5.87;;;1.20;;
5475;SDS011;2760;50.000;9.194;2022-10-22T10:06:29;4.57;;;0.90;;
5475;SDS011;2760;50.000;9.194;2022-10-22T10:08:58;4.37;;;1.23;;
5475;SDS011;2760;50.000;9.194;2022-10-22T10:11:30;2.83;;;0.90;;
5475;SDS011;2760;50.000;9.194;2022-10-22T10:14:05;7.03;;;0.90;;
5475;SDS011;2760;50.000;9.194;2022-10-22T10:16:39;1.43;;;0.83;;
5475;SDS011;2760;50.000;9.194;2022-10-22T10:19:16;1.20;;;0.97;;
5475;SDS011;2760;50.000;9.194;2022-10-22T10:21:56;1.67;;;0.97;;
5475;SDS011;2760;50.000;9.194;2022-10-22T10:24:32;3.53;;;1.03;;
5475;SDS011;2760;50.000;9.194;2022-10-22T10:27:19;4.90;;;1.23;;
5475;SDS011;2760;50.000;9.194;2022-10-22T10:29:54;2.10;;;0.80;;
5475;SDS011;2760;50.000;9.194;2022-10-22T10:32:32;5.50;;;1.00;;
5475;SDS011;2760;50.000;9.194;2022-10-22T10:35:29;2.33;;;1.10;;
5475;SDS011;2760;50.000;9.194;2022-10-22T10:38:10;2.03;;;1.07;;
5475;SDS011;2760;50.000;9.194;2022-10-22T10:40:54;2.40;;;1.07;;
5475;SDS011;2760;50.000;9.194;2022-10-22T10:43:29;4.57;;;1.10;;
5475;SDS011;2760;50.000;9.194;2022-10-22T10:46:05;1.53;;;0.80;;
5475;SDS011;2760;50.000;9.194;2022-10-22T10:48:42;6.40;;;1.20;;
5475;SDS011;2760;50.000;9.194;2022-10-22T10:51:24;1.93;;;0.80;;
5475;SDS011;2760;50.000;9.194;2022-10-22T10:54:25;3.50;;;1.30;;
5475;SDS011;2760;50.000;9.194;2022-10-22T10:57:01;8.00;;;0.90;;
5475;SDS011;2760;50.000;9.194;2022-10-22T10:59:39;1.97;;;0.80;;
5475;SDS011;2760;50.000;9.194;2022-10-22T11:02:30;5.27;;;0.90;;
5475;SDS011;2760;50.000;9.194;2022-10-22T11:05:21;3.90;;;1.23;;
5475;SDS011;2760;50.000;9.194;2022-10-22T11:07:56;3.47;;;1.10;;
5475;SDS011;2760;50.000;9.194;2022-10-22T11:10:27;2.10;;;0.90;;
5475;SDS011;2760;50.000;9.194;2022-10-22T11:12:59;1.97;;;0.83;;
5475;SDS011;2760;50.000;9.194;2022-10-22T11:15:31;2.17;;;1.10;;
5475;SDS011;2760;50.000;9.194;2022-10-22T11:18:01;2.47;;;1.47;;
5475;SDS011;2760;50.000;9.194;2022-10-22T11:23:37;1.77;;;1.10;;
5475;SDS011;2760;50.000;9.194;2022-10-22T11:26:10;2.17;;;0.80;;
5475;SDS011;2760;50.000;9.194;2022-10-22T11:28:44;3.37;;;1.07;;
5475;SDS011;2760;50.000;9.194;2022-10-22T11:31:14;1.77;;;0.90;;
5475;SDS011;2760;50.000;9.194;2022-10-22T11:33:44;1.97;;;0.90;;
5475;SDS011;2760;50.000;9.194;2022-10-22T11:36:18;5.57;;;1.40;;
5475;SDS011;2760;50.000;9.194;2022-10-22T11:38:49;3.53;;;1.13;;
5475;SDS011;2760;50.000;9.194;2022-10-22T11:41:18;4.03;;;1.27;;
5475;SDS011;2760;50.000;9.194;2022-10-22T11:43:51;4.50;;;1.40;;
5475;SDS011;2760;50.000;9.194;2022-10-22T11:46:25;1.80;;;1.00;;
5475;SDS011;2760;50.000;9.194;2022-10-22T11:49:00;3.00;;;0.83;;
5475;SDS011;2760;50.000;9.194;2022-10-22T11:51:31;2.33;;;1.10;;
5475;SDS011;2760;50.000;9.194;2022-10-22T11:54:15;4.00;;;1.40;;
5475;SDS011;2760;50.000;9.194;2022-10-22T11:56:56;2.20;;;1.10;;
5475;SDS011;2760;50.000;9.194;2022-10-22T11:59:39;2.40;;;1.20;;
5475;SDS011;2760;50.000;9.194;2022-10-22T12:02:22;2.17;;;1.27;;
5475;SDS011;2760;50.000;9.194;2022-10-22T12:05:28;3.20;;;1.10;;
5475;SDS011;2760;50.000;9.194;2022-10-22T12:11:05;4.57;;;1.10;;
5475;SDS011;2760;50.000;9.194;2022-10-22T12:13:51;3.27;;;1.13;;
5475;SDS011;2760;50.000;9.194;2022-10-22T12:16:34;3.50;;;1.40;;
5475;SDS011;2760;50.000;9.194;2022-10-22T12:19:04;4.07;;;1.30;;
5475;SDS011;2760;50.000;9.194;2022-10-22T12:21:39;5.20;;;1.30;;
5475;SDS011;2760;50.000;9.194;2022-10-22T12:24:09;5.47;;;1.20;;
5475;SDS011;2760;50.000;9.194;2022-10-22T12:26:41;5.00;;;1.20;;
5475;SDS011;2760;50.000;9.194;2022-10-22T12:29:10;4.50;;;1.23;;
5475;SDS011;2760;50.000;9.194;2022-10-22T12:31:40;8.03;;;1.17;;
5475;SDS011;2760;50.000;9.194;2022-10-22T12:34:12;3.17;;;1.67;;
5475;SDS011;2760;50.000;9.194;2022-10-22T12:36:42;4.23;;;1.80;;
5475;SDS011;2760;50.000;9.194;2022-10-22T12:39:11;4.77;;;1.47;;
5475;SDS011;2760;50.000;9.194;2022-10-22T12:41:44;2.40;;;1.40;;
5475;SDS011;2760;50.000;9.194;2022-10-22T12:44:13;3.27;;;1.10;;
5475;SDS011;2760;50.000;9.194;2022-10-22T12:46:42;6.90;;;1.47;;
5475;SDS011;2760;50.000;9.194;2022-10-22T12:49:13;5.03;;;1.37;;
5475;SDS011;2760;50.000;9.194;2022-10-22T12:51:46;5.70;;;1.30;;
5475;SDS011;2760;50.000;9.194;2022-10-22T12:54:18;3.00;;;1.80;;
5475;SDS011;2760;50.000;9.194;2022-10-22T12:56:51;4.50;;;1.37;;
5475;SDS011;2760;50.000;9.194;2022-10-22T12:59:20;4.23;;;1.50;;
5475;SDS011;2760;50.000;9.194;2022-10-22T13:01:49;5.77;;;1.70;;
5475;SDS011;2760;50.000;9.194;2022-10-22T13:04:27;4.17;;;1.57;;
5475;SDS011;2760;50.000;9.194;2022-10-22T13:07:12;4.10;;;1.20;;
5475;SDS011;2760;50.000;9.194;2022-10-22T13:09:43;4.90;;;1.87;;
5475;SDS011;2760;50.000;9.194;2022-10-22T13:12:22;3.67;;;1.60;;
5475;SDS011;2760;50.000;9.194;2022-10-22T13:14:50;1.80;;;1.30;;
5475;SDS011;2760;50.000;9.194;2022-10-22T13:17:19;5.97;;;1.57;;
5475;SDS011;2760;50.000;9.194;2022-10-22T13:20:03;2.70;;;1.20;;
5475;SDS011;2760;50.000;9.194;2022-10-22T13:22:52;5.33;;;1.30;;
5475;SDS011;2760;50.000;9.194;2022-10-22T13:25:23;3.80;;;1.40;;
5475;SDS011;2760;50.000;9.194;2022-10-22T13:27:55;4.30;;;1.87;;
5475;SDS011;2760;50.000;9.194;2022-10-22T13:30:26;5.03;;;1.73;;
5475;SDS011;2760;50.000;9.194;2022-10-22T13:32:55;2.63;;;1.30;;
5475;SDS011;2760;50.000;9.194;2022-10-22T13:35:25;6.30;;;1.17;;
5475;SDS011;2760;50.000;9.194;2022-10-22T13:37:56;7.10;;;2.90;;
5475;SDS011;2760;50.000;9.194;2022-10-22T13:40:23;2.83;;;1.00;;
5475;SDS011;2760;50.000;9.194;2022-10-22T13:42:51;1.73;;;1.03;;
5475;SDS011;2760;50.000;9.194;2022-10-22T13:45:20;1.93;;;1.00;;
5475;SDS011;2760;50.000;9.194;2022-10-22T13:47:52;3.70;;;1.40;;
5475;SDS011;2760;50.000;9.194;2022-10-22T13:50:21;2.50;;;1.20;;
5475;SDS011;2760;50.000;9.194;2022-10-22T13:52:49;6.80;;;1.70;;
5475;SDS011;2760;50.000;9.194;2022-10-22T13:55:18;3.07;;;1.00;;
5475;SDS011;2760;50.000;9.194;2022-10-22T13:57:49;3.53;;;1.57;;
5475;SDS011;2760;50.000;9.194;2022-10-22T14:00:18;2.67;;;0.90;;
5475;SDS011;2760;50.000;9.194;2022-10-22T14:02:47;4.33;;;1.20;;
5475;SDS011;2760;50.000;9.194;2022-10-22T14:05:17;4.80;;;1.40;;
5475;SDS011;2760;50.000;9.194;2022-10-22T14:07:45;3.10;;;1.47;;
5475;SDS011;2760;50.000;9.194;2022-10-22T14:10:19;7.50;;;1.50;;
5475;SDS011;2760;50.000;9.194;2022-10-22T14:12:48;9.00;;;2.53;;
5475;SDS011;2760;50.000;9.194;2022-10-22T14:15:18;2.97;;;1.23;;
5475;SDS011;2760;50.000;9.194;2022-10-22T14:17:48;4.07;;;1.50;;
5475;SDS011;2760;50.000;9.194;2022-10-22T14:20:22;2.90;;;1.80;;
5475;SDS011;2760;50.000;9.194;2022-10-22T14:22:51;5.87;;;1.57;;
5475;SDS011;2760;50.000;9.194;2022-10-22T14:25:20;11.00;;;1.20;;
5475;SDS011;2760;50.000;9.194;2022-10-22T14:27:48;2.10;;;1.03;;
5475;SDS011;2760;50.000;9.194;2022-10-22T14:30:17;6.67;;;1.50;;
5475;SDS011;2760;50.000;9.194;2022-10-22T14:32:49;8.83;;;1.30;;
5475;SDS011;2760;50.000;9.194;2022-10-22T14:35:17;4.10;;;1.27;;
5475;SDS011;2760;50.000;9.194;2022-10-22T14:37:45;7.70;;;1.40;;
5475;SDS011;2760;50.000;9.194;2022-10-22T14:40:16;5.00;;;1.00;;
5475;SDS011;2760;50.000;9.194;2022-10-22T14:42:46;4.67;;;1.33;;
5475;SDS011;2760;50.000;9.194;2022-10-22T14:45:15;2.93;;;1.20;;
5475;SDS011;2760;50.000;9.194;2022-10-22T14:47:45;4.50;;;1.30;;
5475;SDS011;2760;50.000;9.194;2022-10-22T14:50:13;2.30;;;1.40;;
5475;SDS011;2760;50.000;9.194;2022-10-22T14:52:40;5.37;;;1.70;;
5475;SDS011;2760;50.000;9.194;2022-10-22T14:55:08;6.30;;;1.90;;
5475;SDS011;2760;50.000;9.194;2022-10-22T14:57:36;3.43;;;1.40;;
5475;SDS011;2760;50.000;9.194;2022-10-22T15:00:04;6.13;;;1.57;;
5475;SDS011;2760;50.000;9.194;2022-10-22T15:02:33;6.20;;;2.37;;
5475;SDS011;2760;50.000;9.194;2022-10-22T15:05:02;3.27;;;1.33;;
5475;SDS011;2760;50.000;9.194;2022-10-22T15:07:30;2.13;;;1.23;;
5475;SDS011;2760;50.000;9.194;2022-10-22T15:09:57;6.50;;;1.60;;
5475;SDS011;2760;50.000;9.194;2022-10-22T15:12:24;2.47;;;1.20;;
5475;SDS011;2760;50.000;9.194;2022-10-22T15:14:51;2.80;;;1.50;;
5475;SDS011;2760;50.000;9.194;2022-10-22T15:17:18;9.33;;;2.10;;
5475;SDS011;2760;50.000;9.194;2022-10-22T15:19:45;4.10;;;1.97;;
5475;SDS011;2760;50.000;9.194;2022-10-22T15:22:14;8.70;;;2.60;;
5475;SDS011;2760;50.000;9.194;2022-10-22T15:24:41;7.87;;;1.67;;
5475;SDS011;2760;50.000;9.194;2022-10-22T15:27:08;9.03;;;4.53;;
5475;SDS011;2760;50.000;9.194;2022-10-22T15:29:38;13.47;;;7.63;;
5475;SDS011;2760;50.000;9.194;2022-10-22T15:32:05;14.83;;;4.80;;
5475;SDS011;2760;50.000;9.194;2022-10-22T15:34:35;6.10;;;1.60;;
5475;SDS011;2760;50.000;9.194;2022-10-22T15:37:05;4.17;;;1.20;;
5475;SDS011;2760;50.000;9.194;2022-10-22T15:39:37;4.13;;;1.67;;
5475;SDS011;2760;50.000;9.194;2022-10-22T15:42:05;15.10;;;5.17;;
5475;SDS011;2760;50.000;9.194;2022-10-22T15:44:32;8.80;;;3.90;;